CES566 WSSS-ZSPD
Flight info
| Callsign | CES566 |
|---|---|
| Flight time | 4h 52m |
| Altitude | 31000 |
| Route | VMR9B VMR M771 DUBSA/N0474F320 M771 DUDIS/K0878F320 M771 DOSUT/N0467F340 M771 DULOP/N0469F330 Q1 CARSO DCT NOBAD DCT SANKU/N0468F340 DCT SOUSA/N0467F330 V601 DOTMI/K0863S1010 A470 BEBEM/K0859S1070 A470 LJG B221 SHZ W58 BK BK81A |
| Aircraft | A321/M-SDE3FGHIRWY/LB1 |
Departure
| Time | 2026-05-05 19:45 |
|---|---|
| Airport | Singapore Changi Airport (WSSS) |
Arrival
| Time | 2026-05-06 00:38 |
|---|---|
| Airport | Shanghai Pudong International Airport (ZSPD) |
| Time | Latitude | Longitude | Altitude | Speed | Heading |
|---|---|---|---|---|---|
| 2026-05-05 19:21 | 1.35550 | 103.98413 | 29 ft | 0 kts | 134° |
| 2026-05-05 19:29 | 1.35561 | 103.98402 | 29 ft | 4 kts | 129° |
| 2026-05-05 19:29 | 1.35577 | 103.98381 | 30 ft | 4 kts | 125° |
| 2026-05-05 19:29 | 1.35592 | 103.98361 | 30 ft | 2 kts | 134° |
| 2026-05-05 19:30 | 1.35609 | 103.98346 | 30 ft | 4 kts | 166° |
| 2026-05-05 19:30 | 1.35630 | 103.98348 | 30 ft | 4 kts | 203° |
| 2026-05-05 19:30 | 1.35654 | 103.98358 | 30 ft | 2 kts | 203° |
| 2026-05-05 19:30 | 1.35655 | 103.98358 | 30 ft | 0 kts | 203° |
| 2026-05-05 19:33 | 1.35651 | 103.98357 | 30 ft | 2 kts | 203° |
| 2026-05-05 19:34 | 1.35619 | 103.98343 | 29 ft | 7 kts | 203° |
| 2026-05-05 19:34 | 1.35571 | 103.98323 | 30 ft | 8 kts | 203° |
| 2026-05-05 19:34 | 1.35518 | 103.98300 | 30 ft | 9 kts | 203° |
| 2026-05-05 19:35 | 1.35394 | 103.98249 | 30 ft | 11 kts | 202° |
| 2026-05-05 19:35 | 1.35334 | 103.98222 | 30 ft | 9 kts | 212° |
| 2026-05-05 19:35 | 1.35320 | 103.98164 | 30 ft | 10 kts | 292° |
| 2026-05-05 19:35 | 1.35385 | 103.98147 | 29 ft | 12 kts | 19° |
| 2026-05-05 19:36 | 1.35468 | 103.98181 | 30 ft | 14 kts | 22° |
| 2026-05-05 19:36 | 1.35566 | 103.98223 | 30 ft | 16 kts | 23° |
| 2026-05-05 19:36 | 1.35678 | 103.98270 | 30 ft | 18 kts | 23° |
| 2026-05-05 19:36 | 1.35797 | 103.98320 | 30 ft | 19 kts | 22° |
| 2026-05-05 19:37 | 1.35918 | 103.98371 | 30 ft | 19 kts | 22° |
| 2026-05-05 19:37 | 1.36041 | 103.98423 | 30 ft | 19 kts | 23° |
| 2026-05-05 19:37 | 1.36164 | 103.98475 | 30 ft | 19 kts | 22° |
| 2026-05-05 19:37 | 1.36289 | 103.98527 | 30 ft | 20 kts | 22° |
| 2026-05-05 19:38 | 1.36414 | 103.98580 | 28 ft | 20 kts | 23° |
| 2026-05-05 19:38 | 1.36540 | 103.98633 | 30 ft | 20 kts | 23° |
| 2026-05-05 19:38 | 1.36668 | 103.98687 | 30 ft | 20 kts | 22° |
| 2026-05-05 19:38 | 1.36792 | 103.98739 | 30 ft | 18 kts | 22° |
| 2026-05-05 19:39 | 1.36835 | 103.98807 | 30 ft | 13 kts | 108° |
| 2026-05-05 19:39 | 1.36796 | 103.98898 | 30 ft | 15 kts | 113° |
| 2026-05-05 19:39 | 1.36754 | 103.98995 | 29 ft | 16 kts | 113° |
| 2026-05-05 19:39 | 1.36711 | 103.99097 | 28 ft | 16 kts | 113° |
| 2026-05-05 19:40 | 1.36666 | 103.99201 | 29 ft | 17 kts | 113° |
| 2026-05-05 19:40 | 1.36620 | 103.99310 | 30 ft | 17 kts | 113° |
| 2026-05-05 19:40 | 1.36572 | 103.99421 | 30 ft | 18 kts | 113° |
| 2026-05-05 19:40 | 1.36523 | 103.99534 | 30 ft | 18 kts | 113° |
| 2026-05-05 19:41 | 1.36481 | 103.99633 | 30 ft | 14 kts | 113° |
| 2026-05-05 19:41 | 1.36442 | 103.99724 | 30 ft | 13 kts | 113° |
| 2026-05-05 19:41 | 1.36415 | 103.99788 | 30 ft | 10 kts | 113° |
| 2026-05-05 19:41 | 1.36387 | 103.99848 | 30 ft | 10 kts | 121° |
| 2026-05-05 19:42 | 1.36328 | 103.99876 | 30 ft | 10 kts | 172° |
| 2026-05-05 19:42 | 1.36255 | 103.99885 | 30 ft | 11 kts | 173° |
| 2026-05-05 19:42 | 1.36187 | 103.99890 | 30 ft | 7 kts | 184° |
| 2026-05-05 19:42 | 1.36155 | 103.99880 | 30 ft | 0 kts | 203° |
| 2026-05-05 19:43 | 1.36150 | 103.99878 | 30 ft | 1 kts | 203° |
| 2026-05-05 19:43 | 1.36144 | 103.99876 | 30 ft | 0 kts | 203° |
| 2026-05-05 19:44 | 1.36142 | 103.99874 | 30 ft | 2 kts | 203° |
| 2026-05-05 19:44 | 1.36002 | 103.99815 | 30 ft | 54 kts | 203° |
| 2026-05-05 19:44 | 1.35455 | 103.99585 | 30 ft | 115 kts | 203° |
| 2026-05-05 19:45 | 1.34552 | 103.99203 | 31 ft | 165 kts | 203° |
| 2026-05-05 19:45 | 1.33412 | 103.98723 | 265 ft | 187 kts | 203° |
| 2026-05-05 19:45 | 1.32241 | 103.98226 | 998 ft | 183 kts | 203° |
| 2026-05-05 19:45 | 1.31062 | 103.97720 | 1553 ft | 185 kts | 203° |
| 2026-05-05 19:46 | 1.29851 | 103.97194 | 1828 ft | 196 kts | 203° |
| 2026-05-05 19:46 | 1.28565 | 103.96658 | 1956 ft | 206 kts | 203° |
| 2026-05-05 19:46 | 1.27197 | 103.96083 | 2104 ft | 220 kts | 202° |
| 2026-05-05 19:46 | 1.25730 | 103.95485 | 2187 ft | 238 kts | 198° |
| 2026-05-05 19:47 | 1.24036 | 103.95209 | 2302 ft | 257 kts | 178° |
| 2026-05-05 19:47 | 1.22251 | 103.95539 | 2690 ft | 266 kts | 158° |
| 2026-05-05 19:47 | 1.20650 | 103.96464 | 3253 ft | 269 kts | 140° |
| 2026-05-05 19:47 | 1.19233 | 103.97694 | 3842 ft | 271 kts | 138° |
| 2026-05-05 19:48 | 1.17816 | 103.98943 | 4425 ft | 274 kts | 138° |
| 2026-05-05 19:48 | 1.16612 | 104.00407 | 4968 ft | 275 kts | 116° |
| 2026-05-05 19:48 | 1.16138 | 104.02251 | 5456 ft | 279 kts | 89° |
| 2026-05-05 19:48 | 1.16568 | 104.04130 | 5951 ft | 281 kts | 62° |
| 2026-05-05 19:49 | 1.17689 | 104.05732 | 6426 ft | 284 kts | 51° |
| 2026-05-05 19:49 | 1.18509 | 104.06758 | 6765 ft | 286 kts | 51° |
| 2026-05-05 19:49 | 1.20315 | 104.08736 | 7437 ft | 290 kts | 38° |
| 2026-05-05 19:49 | 1.22006 | 104.09840 | 7921 ft | 292 kts | 29° |
| 2026-05-05 19:50 | 1.23791 | 104.10824 | 8393 ft | 294 kts | 29° |
| 2026-05-05 19:50 | 1.25630 | 104.11737 | 8825 ft | 297 kts | 18° |
| 2026-05-05 19:50 | 1.27582 | 104.12090 | 9248 ft | 299 kts | 359° |
| 2026-05-05 19:50 | 1.29631 | 104.11768 | 9677 ft | 300 kts | 340° |
| 2026-05-05 19:51 | 1.31466 | 104.10781 | 10106 ft | 302 kts | 322° |
| 2026-05-05 19:51 | 1.33116 | 104.09403 | 10264 ft | 316 kts | 319° |
| 2026-05-05 19:51 | 1.34812 | 104.07940 | 10392 ft | 328 kts | 319° |
| 2026-05-05 19:51 | 1.36579 | 104.06432 | 10517 ft | 340 kts | 320° |
| 2026-05-05 19:52 | 1.38407 | 104.04880 | 10644 ft | 350 kts | 320° |
| 2026-05-05 19:52 | 1.40324 | 104.03309 | 10775 ft | 362 kts | 324° |
| 2026-05-05 19:52 | 1.42510 | 104.02011 | 10904 ft | 372 kts | 335° |
| 2026-05-05 19:52 | 1.44968 | 104.01087 | 11033 ft | 381 kts | 342° |
| 2026-05-05 19:53 | 1.47522 | 104.00278 | 11160 ft | 390 kts | 342° |
| 2026-05-05 19:53 | 1.50138 | 103.99444 | 11290 ft | 399 kts | 342° |
| 2026-05-05 19:53 | 1.52796 | 103.98585 | 11555 ft | 403 kts | 342° |
| 2026-05-05 19:53 | 1.55475 | 103.97716 | 11909 ft | 406 kts | 342° |
| 2026-05-05 19:54 | 1.58165 | 103.96845 | 12274 ft | 407 kts | 342° |
| 2026-05-05 19:54 | 1.60836 | 103.95979 | 12616 ft | 410 kts | 342° |
| 2026-05-05 19:54 | 1.63549 | 103.95098 | 12970 ft | 412 kts | 342° |
| 2026-05-05 19:54 | 1.66286 | 103.94215 | 13330 ft | 415 kts | 342° |
| 2026-05-05 19:55 | 1.69033 | 103.93325 | 13692 ft | 417 kts | 342° |
| 2026-05-05 19:55 | 1.71808 | 103.92440 | 14056 ft | 419 kts | 342° |
| 2026-05-05 19:55 | 1.74589 | 103.91572 | 14392 ft | 420 kts | 346° |
| 2026-05-05 19:55 | 1.77469 | 103.91067 | 14730 ft | 421 kts | 355° |
| 2026-05-05 19:56 | 1.80395 | 103.90864 | 15068 ft | 423 kts | 357° |
| 2026-05-05 19:56 | 1.83346 | 103.90693 | 15398 ft | 426 kts | 357° |
| 2026-05-05 19:56 | 1.86307 | 103.90508 | 15732 ft | 427 kts | 357° |
| 2026-05-05 19:56 | 1.89284 | 103.90317 | 16044 ft | 430 kts | 357° |
| 2026-05-05 19:57 | 1.92258 | 103.90140 | 16317 ft | 427 kts | 357° |
| 2026-05-05 19:57 | 1.94230 | 103.90018 | 16464 ft | 430 kts | 357° |
| 2026-05-05 19:57 | 1.98251 | 103.89756 | 16835 ft | 434 kts | 356° |
| 2026-05-05 19:57 | 2.01267 | 103.89553 | 17118 ft | 435 kts | 356° |
| 2026-05-05 19:58 | 2.04296 | 103.89358 | 17386 ft | 437 kts | 357° |
| 2026-05-05 19:58 | 2.07329 | 103.89177 | 17647 ft | 438 kts | 357° |
| 2026-05-05 19:58 | 2.10381 | 103.88990 | 17903 ft | 440 kts | 357° |
| 2026-05-05 19:58 | 2.13443 | 103.88790 | 18141 ft | 441 kts | 357° |
| 2026-05-05 19:59 | 2.16513 | 103.88588 | 18363 ft | 443 kts | 357° |
| 2026-05-05 19:59 | 2.19554 | 103.88399 | 18584 ft | 445 kts | 357° |
| 2026-05-05 19:59 | 2.22639 | 103.88205 | 18817 ft | 447 kts | 357° |
| 2026-05-05 19:59 | 2.25763 | 103.88004 | 19077 ft | 449 kts | 357° |
| 2026-05-05 20:00 | 2.28894 | 103.87796 | 19330 ft | 453 kts | 357° |
| 2026-05-05 20:00 | 2.32036 | 103.87594 | 19635 ft | 452 kts | 357° |
| 2026-05-05 20:00 | 2.35180 | 103.87577 | 19843 ft | 452 kts | 5° |
| 2026-05-05 20:00 | 2.38285 | 103.88041 | 20033 ft | 451 kts | 13° |
| 2026-05-05 20:01 | 2.40336 | 103.88597 | 20134 ft | 451 kts | 20° |
| 2026-05-05 20:01 | 2.44103 | 103.90380 | 20340 ft | 457 kts | 32° |
| 2026-05-05 20:01 | 2.45919 | 103.91529 | 20527 ft | 456 kts | 33° |
| 2026-05-05 20:01 | 2.48603 | 103.93230 | 20725 ft | 457 kts | 32° |
| 2026-05-05 20:02 | 2.51264 | 103.94893 | 20890 ft | 458 kts | 32° |
| 2026-05-05 20:02 | 2.53968 | 103.96581 | 21047 ft | 459 kts | 32° |
| 2026-05-05 20:02 | 2.56681 | 103.98268 | 21203 ft | 460 kts | 32° |
| 2026-05-05 20:02 | 2.59404 | 103.99968 | 21383 ft | 462 kts | 32° |
| 2026-05-05 20:03 | 2.62134 | 104.01666 | 21563 ft | 462 kts | 32° |
| 2026-05-05 20:03 | 2.64869 | 104.03368 | 21721 ft | 463 kts | 32° |
| 2026-05-05 20:03 | 2.67608 | 104.05067 | 21867 ft | 463 kts | 32° |
| 2026-05-05 20:03 | 2.70342 | 104.06779 | 21993 ft | 463 kts | 32° |
| 2026-05-05 20:04 | 2.73083 | 104.08489 | 22107 ft | 465 kts | 32° |
| 2026-05-05 20:04 | 2.75838 | 104.10196 | 22235 ft | 466 kts | 32° |
| 2026-05-05 20:04 | 2.78599 | 104.11912 | 22362 ft | 468 kts | 32° |
| 2026-05-05 20:04 | 2.81366 | 104.13630 | 22486 ft | 469 kts | 32° |
| 2026-05-05 20:05 | 2.84131 | 104.15351 | 22609 ft | 470 kts | 32° |
| 2026-05-05 20:05 | 2.86908 | 104.17080 | 22731 ft | 470 kts | 32° |
| 2026-05-05 20:05 | 2.89688 | 104.18815 | 22861 ft | 471 kts | 32° |
| 2026-05-05 20:05 | 2.92469 | 104.20548 | 22982 ft | 471 kts | 32° |
| 2026-05-05 20:06 | 2.95247 | 104.22281 | 23104 ft | 471 kts | 32° |
| 2026-05-05 20:06 | 2.98026 | 104.24017 | 23229 ft | 471 kts | 32° |
| 2026-05-05 20:06 | 3.00806 | 104.25744 | 23351 ft | 472 kts | 32° |
| 2026-05-05 20:06 | 3.03567 | 104.27452 | 23472 ft | 472 kts | 32° |
| 2026-05-05 20:07 | 3.06356 | 104.29189 | 23597 ft | 472 kts | 33° |
| 2026-05-05 20:07 | 3.09124 | 104.30962 | 23733 ft | 473 kts | 33° |
| 2026-05-05 20:07 | 3.11896 | 104.32734 | 23841 ft | 473 kts | 33° |
| 2026-05-05 20:07 | 3.14680 | 104.34491 | 23968 ft | 473 kts | 32° |
| 2026-05-05 20:08 | 3.17483 | 104.36220 | 24092 ft | 473 kts | 32° |
| 2026-05-05 20:08 | 3.20286 | 104.37951 | 24211 ft | 473 kts | 32° |
| 2026-05-05 20:08 | 3.23086 | 104.39688 | 24336 ft | 473 kts | 32° |
| 2026-05-05 20:08 | 3.25887 | 104.41427 | 24460 ft | 473 kts | 32° |
| 2026-05-05 20:09 | 3.28685 | 104.43159 | 24581 ft | 473 kts | 32° |
| 2026-05-05 20:09 | 3.31484 | 104.44898 | 24709 ft | 473 kts | 32° |
| 2026-05-05 20:09 | 3.34283 | 104.46639 | 24827 ft | 473 kts | 32° |
| 2026-05-05 20:09 | 3.37079 | 104.48381 | 24955 ft | 474 kts | 32° |
| 2026-05-05 20:10 | 3.39880 | 104.50127 | 25075 ft | 475 kts | 32° |
| 2026-05-05 20:10 | 3.42687 | 104.51863 | 25199 ft | 474 kts | 32° |
| 2026-05-05 20:10 | 3.45490 | 104.53604 | 25322 ft | 474 kts | 32° |
| 2026-05-05 20:10 | 3.48297 | 104.55355 | 25447 ft | 474 kts | 32° |
| 2026-05-05 20:11 | 3.51112 | 104.57098 | 25528 ft | 478 kts | 32° |
| 2026-05-05 20:11 | 3.53944 | 104.58858 | 25627 ft | 480 kts | 32° |
| 2026-05-05 20:11 | 3.56779 | 104.60608 | 25768 ft | 476 kts | 32° |
| 2026-05-05 20:11 | 3.59594 | 104.62358 | 25884 ft | 476 kts | 32° |
| 2026-05-05 20:12 | 3.62398 | 104.64105 | 25989 ft | 473 kts | 32° |
| 2026-05-05 20:12 | 3.65192 | 104.65844 | 26113 ft | 471 kts | 32° |
| 2026-05-05 20:12 | 3.67945 | 104.67553 | 26223 ft | 471 kts | 32° |
| 2026-05-05 20:12 | 3.70761 | 104.69304 | 26351 ft | 471 kts | 32° |
| 2026-05-05 20:13 | 3.73511 | 104.71012 | 26470 ft | 471 kts | 32° |
| 2026-05-05 20:13 | 3.76295 | 104.72750 | 26597 ft | 472 kts | 32° |
| 2026-05-05 20:13 | 3.79083 | 104.74481 | 26715 ft | 472 kts | 32° |
| 2026-05-05 20:13 | 3.81871 | 104.76214 | 26844 ft | 472 kts | 32° |
| 2026-05-05 20:14 | 3.84654 | 104.77949 | 26966 ft | 471 kts | 32° |
| 2026-05-05 20:14 | 3.87444 | 104.79676 | 27086 ft | 471 kts | 32° |
| 2026-05-05 20:14 | 3.90227 | 104.81414 | 27209 ft | 471 kts | 32° |
| 2026-05-05 20:14 | 3.93012 | 104.83149 | 27338 ft | 473 kts | 32° |
| 2026-05-05 20:15 | 3.95805 | 104.84885 | 27466 ft | 472 kts | 32° |
| 2026-05-05 20:15 | 3.98586 | 104.86618 | 27589 ft | 471 kts | 32° |
| 2026-05-05 20:15 | 4.01366 | 104.88350 | 27710 ft | 471 kts | 32° |
| 2026-05-05 20:15 | 4.04147 | 104.90082 | 27836 ft | 470 kts | 32° |
| 2026-05-05 20:16 | 4.06924 | 104.91812 | 27957 ft | 470 kts | 32° |
| 2026-05-05 20:16 | 4.09704 | 104.93547 | 28079 ft | 471 kts | 32° |
| 2026-05-05 20:16 | 4.12480 | 104.95271 | 28198 ft | 470 kts | 32° |
| 2026-05-05 20:16 | 4.15260 | 104.96997 | 28317 ft | 470 kts | 32° |
| 2026-05-05 20:17 | 4.18038 | 104.98729 | 28440 ft | 470 kts | 32° |
| 2026-05-05 20:17 | 4.20822 | 105.00462 | 28564 ft | 471 kts | 32° |
| 2026-05-05 20:17 | 4.23604 | 105.02191 | 28681 ft | 471 kts | 32° |
| 2026-05-05 20:17 | 4.26382 | 105.03924 | 28807 ft | 470 kts | 32° |
| 2026-05-05 20:18 | 4.29127 | 105.05628 | 28929 ft | 471 kts | 32° |
| 2026-05-05 20:18 | 4.31909 | 105.07357 | 29050 ft | 470 kts | 32° |
| 2026-05-05 20:18 | 4.34692 | 105.09080 | 29175 ft | 470 kts | 32° |
| 2026-05-05 20:18 | 4.37471 | 105.10810 | 29297 ft | 470 kts | 32° |
| 2026-05-05 20:19 | 4.40245 | 105.12535 | 29421 ft | 469 kts | 32° |
| 2026-05-05 20:19 | 4.43017 | 105.14258 | 29541 ft | 469 kts | 32° |
| 2026-05-05 20:19 | 4.45788 | 105.15978 | 29664 ft | 468 kts | 32° |
| 2026-05-05 20:19 | 4.48563 | 105.17704 | 29788 ft | 468 kts | 32° |
| 2026-05-05 20:20 | 4.51327 | 105.19422 | 29908 ft | 467 kts | 32° |
| 2026-05-05 20:20 | 4.54089 | 105.21139 | 30039 ft | 467 kts | 32° |
| 2026-05-05 20:20 | 4.56847 | 105.22858 | 30154 ft | 467 kts | 32° |
| 2026-05-05 20:20 | 4.59604 | 105.24575 | 30281 ft | 467 kts | 32° |
| 2026-05-05 20:21 | 4.62359 | 105.26293 | 30404 ft | 466 kts | 32° |
| 2026-05-05 20:21 | 4.65078 | 105.27975 | 30532 ft | 465 kts | 32° |
| 2026-05-05 20:21 | 4.67830 | 105.29685 | 30648 ft | 466 kts | 32° |
| 2026-05-05 20:21 | 4.70583 | 105.31404 | 30755 ft | 466 kts | 32° |
| 2026-05-05 20:22 | 4.73346 | 105.33118 | 30807 ft | 468 kts | 32° |
| 2026-05-05 20:22 | 4.78889 | 105.36584 | 30844 ft | 471 kts | 32° |
| 2026-05-05 20:23 | 4.84457 | 105.40109 | 30841 ft | 474 kts | 33° |
| 2026-05-05 20:23 | 4.89990 | 105.43735 | 30840 ft | 475 kts | 33° |
| 2026-05-05 20:24 | 4.95542 | 105.47345 | 30840 ft | 475 kts | 33° |
| 2026-05-05 20:24 | 5.01089 | 105.50961 | 30843 ft | 475 kts | 33° |
| 2026-05-05 20:25 | 5.06643 | 105.54570 | 30848 ft | 476 kts | 33° |
| 2026-05-05 20:25 | 5.12205 | 105.58198 | 30851 ft | 478 kts | 33° |
| 2026-05-05 20:26 | 5.17787 | 105.61828 | 30862 ft | 478 kts | 33° |
| 2026-05-05 20:26 | 5.23366 | 105.65463 | 30860 ft | 478 kts | 33° |
| 2026-05-05 20:27 | 5.28910 | 105.69078 | 30860 ft | 479 kts | 33° |
| 2026-05-05 20:27 | 5.34491 | 105.72712 | 30861 ft | 478 kts | 33° |
| 2026-05-05 20:28 | 5.40069 | 105.76345 | 30863 ft | 478 kts | 33° |
| 2026-05-05 20:28 | 5.45646 | 105.79980 | 30858 ft | 478 kts | 33° |
| 2026-05-05 20:29 | 5.51214 | 105.83622 | 30856 ft | 478 kts | 33° |
| 2026-05-05 20:29 | 5.56793 | 105.87257 | 30859 ft | 478 kts | 33° |
| 2026-05-05 20:30 | 5.62339 | 105.90878 | 30863 ft | 478 kts | 33° |
| 2026-05-05 20:30 | 5.67920 | 105.94519 | 30858 ft | 478 kts | 33° |
| 2026-05-05 20:31 | 5.73508 | 105.98167 | 30855 ft | 479 kts | 33° |
| 2026-05-05 20:31 | 5.79096 | 106.01826 | 30860 ft | 479 kts | 33° |
| 2026-05-05 20:32 | 5.84686 | 106.05476 | 30862 ft | 479 kts | 33° |
| 2026-05-05 20:32 | 5.90276 | 106.09119 | 30858 ft | 479 kts | 33° |
| 2026-05-05 20:33 | 5.95851 | 106.12767 | 30862 ft | 477 kts | 33° |
| 2026-05-05 20:33 | 6.01426 | 106.16409 | 30859 ft | 478 kts | 33° |
| 2026-05-05 20:34 | 6.07003 | 106.20046 | 30861 ft | 478 kts | 33° |
| 2026-05-05 20:34 | 6.12573 | 106.23701 | 30862 ft | 478 kts | 33° |
| 2026-05-05 20:35 | 6.18154 | 106.27343 | 30861 ft | 478 kts | 33° |
| 2026-05-05 20:35 | 6.23729 | 106.30998 | 30869 ft | 478 kts | 33° |
| 2026-05-05 20:36 | 6.29303 | 106.34655 | 30867 ft | 479 kts | 33° |
| 2026-05-05 20:36 | 6.34893 | 106.38307 | 30873 ft | 480 kts | 33° |
| 2026-05-05 20:37 | 6.40500 | 106.41968 | 30885 ft | 480 kts | 33° |
| 2026-05-05 20:37 | 6.46091 | 106.45644 | 30888 ft | 480 kts | 33° |
| 2026-05-05 20:38 | 6.51663 | 106.49280 | 30881 ft | 480 kts | 33° |
| 2026-05-05 20:38 | 6.57252 | 106.52947 | 30890 ft | 479 kts | 33° |
| 2026-05-05 20:39 | 6.62841 | 106.56611 | 30884 ft | 479 kts | 33° |
| 2026-05-05 20:39 | 6.68415 | 106.60268 | 30877 ft | 478 kts | 33° |
| 2026-05-05 20:40 | 6.73986 | 106.63926 | 30881 ft | 478 kts | 33° |
| 2026-05-05 20:40 | 6.79562 | 106.67580 | 30877 ft | 479 kts | 33° |
| 2026-05-05 20:41 | 6.85136 | 106.71237 | 30880 ft | 479 kts | 33° |
| 2026-05-05 20:41 | 6.90724 | 106.74892 | 30882 ft | 478 kts | 33° |
| 2026-05-05 20:42 | 6.96288 | 106.78548 | 30874 ft | 478 kts | 33° |
| 2026-05-05 20:42 | 7.01858 | 106.82222 | 30873 ft | 479 kts | 33° |
| 2026-05-05 20:43 | 7.07438 | 106.85889 | 30881 ft | 479 kts | 33° |
| 2026-05-05 20:43 | 7.13008 | 106.89566 | 30879 ft | 479 kts | 33° |
| 2026-05-05 20:44 | 7.18600 | 106.93241 | 30882 ft | 479 kts | 33° |
| 2026-05-05 20:44 | 7.24140 | 106.96899 | 30886 ft | 479 kts | 33° |
| 2026-05-05 20:45 | 7.32513 | 107.02395 | 30881 ft | 478 kts | 33° |
| 2026-05-05 20:45 | 7.38080 | 107.06070 | 30874 ft | 478 kts | 33° |
| 2026-05-05 20:46 | 7.43648 | 107.09740 | 30881 ft | 477 kts | 33° |
| 2026-05-05 20:46 | 7.49206 | 107.13405 | 30877 ft | 477 kts | 33° |
| 2026-05-05 20:47 | 7.54720 | 107.17041 | 30874 ft | 477 kts | 33° |
| 2026-05-05 20:47 | 7.60274 | 107.20704 | 30873 ft | 478 kts | 33° |
| 2026-05-05 20:48 | 7.65840 | 107.24369 | 30869 ft | 478 kts | 33° |
| 2026-05-05 20:48 | 7.71403 | 107.28041 | 30872 ft | 476 kts | 33° |
| 2026-05-05 20:49 | 7.76955 | 107.31718 | 30887 ft | 478 kts | 33° |
| 2026-05-05 20:49 | 7.82529 | 107.35402 | 30888 ft | 479 kts | 33° |
| 2026-05-05 20:50 | 7.87163 | 107.38460 | 30885 ft | 479 kts | 33° |
| 2026-05-05 20:50 | 7.93673 | 107.42755 | 30873 ft | 477 kts | 33° |
| 2026-05-05 20:51 | 7.98295 | 107.45812 | 30875 ft | 478 kts | 33° |
| 2026-05-05 20:51 | 8.03860 | 107.49482 | 30876 ft | 478 kts | 33° |
| 2026-05-05 20:52 | 8.09379 | 107.53139 | 30883 ft | 478 kts | 33° |
| 2026-05-05 20:52 | 8.14939 | 107.56836 | 30886 ft | 478 kts | 34° |
| 2026-05-05 20:53 | 8.20499 | 107.60508 | 30875 ft | 477 kts | 33° |
| 2026-05-05 20:53 | 8.26060 | 107.64179 | 30881 ft | 477 kts | 33° |
| 2026-05-05 20:54 | 8.31591 | 107.67853 | 30852 ft | 471 kts | 34° |
| 2026-05-05 20:54 | 8.37048 | 107.71466 | 30856 ft | 468 kts | 33° |
| 2026-05-05 20:55 | 8.42529 | 107.75106 | 30873 ft | 474 kts | 33° |
| 2026-05-05 20:55 | 8.48053 | 107.78781 | 30851 ft | 476 kts | 33° |
| 2026-05-05 20:56 | 8.53561 | 107.82423 | 30849 ft | 476 kts | 33° |
| 2026-05-05 20:56 | 8.59138 | 107.86119 | 30851 ft | 476 kts | 33° |
| 2026-05-05 20:57 | 8.64636 | 107.89767 | 30855 ft | 477 kts | 33° |
| 2026-05-05 20:57 | 8.70179 | 107.93451 | 30861 ft | 477 kts | 33° |
| 2026-05-05 20:58 | 8.75737 | 107.97140 | 30863 ft | 478 kts | 33° |
| 2026-05-05 20:58 | 8.81290 | 108.00836 | 30866 ft | 478 kts | 33° |
| 2026-05-05 20:59 | 8.86838 | 108.04534 | 30868 ft | 478 kts | 33° |
| 2026-05-05 20:59 | 8.92397 | 108.08224 | 30865 ft | 478 kts | 34° |
| 2026-05-05 21:00 | 8.97947 | 108.11915 | 30868 ft | 477 kts | 33° |
| 2026-05-05 21:00 | 9.03489 | 108.15607 | 30873 ft | 477 kts | 34° |
| 2026-05-05 21:01 | 9.09029 | 108.19296 | 30867 ft | 477 kts | 34° |
| 2026-05-05 21:01 | 9.14572 | 108.22969 | 30872 ft | 477 kts | 34° |
| 2026-05-05 21:02 | 9.20111 | 108.26672 | 30887 ft | 477 kts | 34° |
| 2026-05-05 21:02 | 9.25663 | 108.30363 | 30882 ft | 477 kts | 33° |
| 2026-05-05 21:03 | 9.31170 | 108.34043 | 30874 ft | 477 kts | 34° |
| 2026-05-05 21:03 | 9.36716 | 108.37732 | 30887 ft | 477 kts | 34° |
| 2026-05-05 21:04 | 9.42241 | 108.41439 | 30879 ft | 476 kts | 34° |
| 2026-05-05 21:04 | 9.47761 | 108.45130 | 30870 ft | 476 kts | 33° |
| 2026-05-05 21:05 | 9.53302 | 108.48806 | 30873 ft | 475 kts | 34° |
| 2026-05-05 21:05 | 9.58819 | 108.52502 | 30866 ft | 475 kts | 34° |
| 2026-05-05 21:06 | 9.64349 | 108.56199 | 30876 ft | 476 kts | 34° |
| 2026-05-05 21:06 | 9.69867 | 108.59896 | 30884 ft | 476 kts | 34° |
| 2026-05-05 21:07 | 9.75402 | 108.63577 | 30871 ft | 476 kts | 34° |
| 2026-05-05 21:07 | 9.80937 | 108.67276 | 30883 ft | 477 kts | 34° |
| 2026-05-05 21:08 | 9.86427 | 108.70962 | 30842 ft | 479 kts | 33° |
| 2026-05-05 21:08 | 9.91945 | 108.74645 | 30852 ft | 475 kts | 34° |
| 2026-05-05 21:09 | 9.97461 | 108.78341 | 30867 ft | 475 kts | 34° |
| 2026-05-05 21:09 | 10.02994 | 108.82039 | 30870 ft | 476 kts | 34° |
| 2026-05-05 21:10 | 10.08525 | 108.85741 | 30890 ft | 475 kts | 34° |
| 2026-05-05 21:10 | 10.14053 | 108.89443 | 30893 ft | 477 kts | 34° |
| 2026-05-05 21:11 | 10.19603 | 108.93153 | 30897 ft | 477 kts | 34° |
| 2026-05-05 21:11 | 10.25139 | 108.96869 | 30889 ft | 477 kts | 34° |
| 2026-05-05 21:12 | 10.30669 | 109.00569 | 30880 ft | 477 kts | 34° |
| 2026-05-05 21:12 | 10.36203 | 109.04287 | 30890 ft | 477 kts | 34° |
| 2026-05-05 21:13 | 10.41739 | 109.07996 | 30887 ft | 477 kts | 34° |
| 2026-05-05 21:13 | 10.47270 | 109.11714 | 30896 ft | 476 kts | 34° |
| 2026-05-05 21:14 | 10.52760 | 109.15399 | 31009 ft | 476 kts | 33° |
| 2026-05-05 21:14 | 10.55520 | 109.17248 | 31129 ft | 475 kts | 34° |
| 2026-05-05 21:14 | 10.58272 | 109.19098 | 31252 ft | 474 kts | 34° |
| 2026-05-05 21:15 | 10.61024 | 109.20946 | 31372 ft | 474 kts | 34° |
| 2026-05-05 21:15 | 10.63771 | 109.22794 | 31493 ft | 473 kts | 34° |
| 2026-05-05 21:15 | 10.66517 | 109.24637 | 31613 ft | 473 kts | 33° |
| 2026-05-05 21:15 | 10.69255 | 109.26486 | 31736 ft | 472 kts | 34° |
| 2026-05-05 21:16 | 10.71994 | 109.28329 | 31860 ft | 472 kts | 33° |
| 2026-05-05 21:16 | 10.74739 | 109.30171 | 31977 ft | 472 kts | 33° |
| 2026-05-05 21:16 | 10.77470 | 109.32004 | 32095 ft | 471 kts | 33° |
| 2026-05-05 21:16 | 10.80198 | 109.33846 | 32222 ft | 471 kts | 34° |
| 2026-05-05 21:17 | 10.82925 | 109.35686 | 32337 ft | 470 kts | 33° |
| 2026-05-05 21:17 | 10.85657 | 109.37520 | 32459 ft | 470 kts | 33° |
| 2026-05-05 21:17 | 10.88384 | 109.39354 | 32586 ft | 469 kts | 33° |
| 2026-05-05 21:17 | 10.91104 | 109.41190 | 32707 ft | 469 kts | 33° |
| 2026-05-05 21:18 | 10.96519 | 109.44837 | 32852 ft | 471 kts | 33° |
| 2026-05-05 21:18 | 11.02003 | 109.48533 | 32900 ft | 474 kts | 33° |
| 2026-05-05 21:19 | 11.07493 | 109.52232 | 32886 ft | 474 kts | 33° |
| 2026-05-05 21:19 | 11.12995 | 109.55931 | 32885 ft | 473 kts | 33° |
| 2026-05-05 21:20 | 11.18538 | 109.59567 | 32883 ft | 473 kts | 33° |
| 2026-05-05 21:20 | 11.24067 | 109.63222 | 32885 ft | 475 kts | 33° |
| 2026-05-05 21:21 | 11.29623 | 109.66878 | 32895 ft | 476 kts | 33° |
| 2026-05-05 21:21 | 11.35193 | 109.70552 | 32906 ft | 476 kts | 33° |
| 2026-05-05 21:22 | 11.40708 | 109.74202 | 32903 ft | 475 kts | 33° |
| 2026-05-05 21:22 | 11.46252 | 109.77864 | 32901 ft | 475 kts | 32° |
| 2026-05-05 21:23 | 11.51811 | 109.81518 | 32901 ft | 475 kts | 32° |
| 2026-05-05 21:23 | 11.57345 | 109.85181 | 32902 ft | 475 kts | 32° |
| 2026-05-05 21:24 | 11.62888 | 109.88850 | 32895 ft | 475 kts | 33° |
| 2026-05-05 21:24 | 11.68434 | 109.92532 | 32902 ft | 475 kts | 32° |
| 2026-05-05 21:25 | 11.73978 | 109.96193 | 32906 ft | 475 kts | 33° |
| 2026-05-05 21:25 | 11.79521 | 109.99873 | 32901 ft | 476 kts | 32° |
| 2026-05-05 21:26 | 11.85044 | 110.03523 | 32900 ft | 476 kts | 32° |
| 2026-05-05 21:26 | 11.90584 | 110.07198 | 32904 ft | 475 kts | 33° |
| 2026-05-05 21:27 | 11.96121 | 110.10882 | 32901 ft | 475 kts | 32° |
| 2026-05-05 21:27 | 12.01668 | 110.14558 | 32895 ft | 475 kts | 32° |
| 2026-05-05 21:28 | 12.07224 | 110.18242 | 32909 ft | 476 kts | 33° |
| 2026-05-05 21:28 | 12.12781 | 110.21942 | 32914 ft | 477 kts | 32° |
| 2026-05-05 21:29 | 12.18360 | 110.25648 | 32922 ft | 478 kts | 32° |
| 2026-05-05 21:29 | 12.23931 | 110.29342 | 32920 ft | 477 kts | 33° |
| 2026-05-05 21:30 | 12.29481 | 110.33058 | 32921 ft | 477 kts | 33° |
| 2026-05-05 21:30 | 12.35037 | 110.36751 | 32919 ft | 477 kts | 32° |
| 2026-05-05 21:31 | 12.40507 | 110.40487 | 32917 ft | 475 kts | 34° |
| 2026-05-05 21:31 | 12.45963 | 110.44299 | 32915 ft | 475 kts | 34° |
| 2026-05-05 21:32 | 12.51421 | 110.48117 | 32917 ft | 475 kts | 33° |
| 2026-05-05 21:32 | 12.56892 | 110.51933 | 32910 ft | 475 kts | 34° |
| 2026-05-05 21:33 | 12.62350 | 110.55745 | 32913 ft | 476 kts | 33° |
| 2026-05-05 21:33 | 12.67811 | 110.59572 | 32907 ft | 475 kts | 33° |
| 2026-05-05 21:34 | 12.73280 | 110.63386 | 32901 ft | 475 kts | 33° |
| 2026-05-05 21:34 | 12.78747 | 110.67203 | 32901 ft | 475 kts | 33° |
| 2026-05-05 21:35 | 12.84209 | 110.71025 | 32911 ft | 475 kts | 33° |
| 2026-05-05 21:35 | 12.89672 | 110.74845 | 32903 ft | 476 kts | 33° |
| 2026-05-05 21:36 | 12.95125 | 110.78663 | 32903 ft | 475 kts | 33° |
| 2026-05-05 21:36 | 13.00549 | 110.82473 | 32904 ft | 476 kts | 33° |
| 2026-05-05 21:37 | 13.06019 | 110.86319 | 32915 ft | 476 kts | 33° |
| 2026-05-05 21:37 | 13.11477 | 110.90145 | 32916 ft | 476 kts | 33° |
| 2026-05-05 21:38 | 13.16943 | 110.93978 | 32915 ft | 476 kts | 33° |
| 2026-05-05 21:38 | 13.22427 | 110.97828 | 32923 ft | 477 kts | 34° |
| 2026-05-05 21:39 | 13.27914 | 111.01682 | 32921 ft | 476 kts | 33° |
| 2026-05-05 21:39 | 13.33372 | 111.05520 | 32911 ft | 475 kts | 33° |
| 2026-05-05 21:40 | 13.38829 | 111.09363 | 32914 ft | 476 kts | 33° |
| 2026-05-05 21:40 | 13.44304 | 111.13198 | 32920 ft | 476 kts | 33° |
| 2026-05-05 21:41 | 13.49749 | 111.17035 | 32920 ft | 475 kts | 33° |
| 2026-05-05 21:41 | 13.54288 | 111.20236 | 32914 ft | 476 kts | 33° |
| 2026-05-05 21:42 | 13.59766 | 111.24084 | 32920 ft | 477 kts | 33° |
| 2026-05-05 21:42 | 13.65238 | 111.27952 | 32923 ft | 477 kts | 34° |
| 2026-05-05 21:43 | 13.70702 | 111.31821 | 32923 ft | 476 kts | 33° |
| 2026-05-05 21:43 | 13.76159 | 111.35675 | 32920 ft | 475 kts | 33° |
| 2026-05-05 21:44 | 13.81603 | 111.39522 | 32918 ft | 475 kts | 33° |
| 2026-05-05 21:44 | 13.87049 | 111.43378 | 32916 ft | 475 kts | 33° |
| 2026-05-05 21:45 | 13.92494 | 111.47227 | 32914 ft | 474 kts | 33° |
| 2026-05-05 21:45 | 13.97893 | 111.51054 | 32916 ft | 474 kts | 33° |
| 2026-05-05 21:46 | 14.03353 | 111.54876 | 32918 ft | 475 kts | 33° |
| 2026-05-05 21:46 | 14.08803 | 111.58710 | 32911 ft | 474 kts | 33° |
| 2026-05-05 21:47 | 14.14248 | 111.62550 | 32912 ft | 473 kts | 33° |
| 2026-05-05 21:47 | 14.19681 | 111.66380 | 32906 ft | 473 kts | 33° |
| 2026-05-05 21:48 | 14.25116 | 111.70210 | 32907 ft | 474 kts | 33° |
| 2026-05-05 21:48 | 14.30558 | 111.74048 | 32902 ft | 474 kts | 33° |
| 2026-05-05 21:49 | 14.36023 | 111.77898 | 32911 ft | 476 kts | 33° |
| 2026-05-05 21:49 | 14.41484 | 111.81761 | 32919 ft | 476 kts | 33° |
| 2026-05-05 21:50 | 14.46924 | 111.85610 | 32915 ft | 476 kts | 33° |
| 2026-05-05 21:50 | 14.52393 | 111.89462 | 32922 ft | 475 kts | 33° |
| 2026-05-05 21:51 | 14.57831 | 111.93327 | 32914 ft | 474 kts | 33° |
| 2026-05-05 21:51 | 14.63278 | 111.97168 | 32911 ft | 474 kts | 33° |
| 2026-05-05 21:52 | 14.71454 | 112.02954 | 32921 ft | 475 kts | 33° |
| 2026-05-05 21:53 | 14.76919 | 112.06798 | 32919 ft | 475 kts | 33° |
| 2026-05-05 21:53 | 14.82384 | 112.10632 | 32924 ft | 475 kts | 33° |
| 2026-05-05 21:54 | 14.87846 | 112.14485 | 32922 ft | 475 kts | 33° |
| 2026-05-05 21:54 | 14.93317 | 112.18321 | 32924 ft | 474 kts | 33° |
| 2026-05-05 21:55 | 14.98773 | 112.22165 | 32924 ft | 474 kts | 33° |
| 2026-05-05 21:55 | 15.04225 | 112.25997 | 32923 ft | 474 kts | 33° |
| 2026-05-05 21:56 | 15.09629 | 112.29807 | 32921 ft | 473 kts | 33° |
| 2026-05-05 21:56 | 15.15070 | 112.33640 | 32920 ft | 473 kts | 33° |
| 2026-05-05 21:57 | 15.20507 | 112.37484 | 32917 ft | 473 kts | 33° |
| 2026-05-05 21:57 | 15.25944 | 112.41332 | 32922 ft | 474 kts | 33° |
| 2026-05-05 21:58 | 15.31396 | 112.45173 | 32925 ft | 474 kts | 33° |
| 2026-05-05 21:58 | 15.36841 | 112.49029 | 32921 ft | 475 kts | 33° |
| 2026-05-05 21:59 | 15.42293 | 112.52887 | 32929 ft | 474 kts | 33° |
| 2026-05-05 21:59 | 15.47746 | 112.56737 | 32939 ft | 474 kts | 33° |
| 2026-05-05 22:00 | 15.53193 | 112.60588 | 32937 ft | 473 kts | 33° |
| 2026-05-05 22:00 | 15.58623 | 112.64456 | 32937 ft | 474 kts | 33° |
| 2026-05-05 22:01 | 15.64064 | 112.68316 | 32938 ft | 474 kts | 33° |
| 2026-05-05 22:01 | 15.69478 | 112.72159 | 32937 ft | 474 kts | 33° |
| 2026-05-05 22:02 | 15.74930 | 112.76023 | 32941 ft | 474 kts | 33° |
| 2026-05-05 22:02 | 15.80366 | 112.79901 | 32942 ft | 474 kts | 33° |
| 2026-05-05 22:03 | 15.85810 | 112.83761 | 32942 ft | 474 kts | 33° |
| 2026-05-05 22:03 | 15.91248 | 112.87639 | 32942 ft | 474 kts | 33° |
| 2026-05-05 22:04 | 15.96692 | 112.91510 | 32942 ft | 474 kts | 33° |
| 2026-05-05 22:04 | 16.02133 | 112.95385 | 32940 ft | 474 kts | 33° |
| 2026-05-05 22:05 | 16.07571 | 112.99264 | 32939 ft | 474 kts | 33° |
| 2026-05-05 22:05 | 16.12995 | 113.03140 | 32933 ft | 473 kts | 33° |
| 2026-05-05 22:06 | 16.18390 | 113.06993 | 32935 ft | 474 kts | 33° |
| 2026-05-05 22:06 | 16.23837 | 113.10879 | 32939 ft | 475 kts | 33° |
| 2026-05-05 22:07 | 16.29283 | 113.14770 | 32943 ft | 474 kts | 33° |
| 2026-05-05 22:07 | 16.34719 | 113.18659 | 32943 ft | 475 kts | 33° |
| 2026-05-05 22:08 | 16.40158 | 113.22558 | 32942 ft | 475 kts | 33° |
| 2026-05-05 22:08 | 16.45607 | 113.26449 | 32943 ft | 474 kts | 33° |
| 2026-05-05 22:09 | 16.51039 | 113.30359 | 32939 ft | 475 kts | 33° |
| 2026-05-05 22:09 | 16.56476 | 113.34266 | 32942 ft | 475 kts | 33° |
| 2026-05-05 22:10 | 16.61926 | 113.38166 | 32939 ft | 475 kts | 33° |
| 2026-05-05 22:10 | 16.67365 | 113.42076 | 32942 ft | 475 kts | 33° |
| 2026-05-05 22:11 | 16.72812 | 113.45990 | 32942 ft | 475 kts | 33° |
| 2026-05-05 22:11 | 16.78215 | 113.49884 | 32941 ft | 475 kts | 33° |
| 2026-05-05 22:12 | 16.83646 | 113.53801 | 32934 ft | 474 kts | 33° |
| 2026-05-05 22:12 | 16.89079 | 113.57722 | 32935 ft | 473 kts | 33° |
| 2026-05-05 22:13 | 16.94506 | 113.61633 | 32936 ft | 474 kts | 33° |
| 2026-05-05 22:13 | 16.99937 | 113.65551 | 32936 ft | 474 kts | 33° |
| 2026-05-05 22:14 | 17.05347 | 113.69441 | 32933 ft | 475 kts | 33° |
| 2026-05-05 22:14 | 17.10803 | 113.73324 | 32934 ft | 475 kts | 33° |
| 2026-05-05 22:15 | 17.16273 | 113.77208 | 32938 ft | 475 kts | 33° |
| 2026-05-05 22:15 | 17.21737 | 113.81099 | 32929 ft | 475 kts | 33° |
| 2026-05-05 22:16 | 17.27187 | 113.85014 | 32926 ft | 474 kts | 33° |
| 2026-05-05 22:16 | 17.32643 | 113.88894 | 32927 ft | 475 kts | 33° |
| 2026-05-05 22:17 | 17.38103 | 113.92790 | 32932 ft | 474 kts | 33° |
| 2026-05-05 22:17 | 17.43563 | 113.96699 | 32936 ft | 475 kts | 33° |
| 2026-05-05 22:18 | 17.49028 | 114.00615 | 32939 ft | 475 kts | 33° |
| 2026-05-05 22:18 | 17.54495 | 114.04525 | 32945 ft | 477 kts | 33° |
| 2026-05-05 22:19 | 17.59924 | 114.08426 | 32951 ft | 477 kts | 33° |
| 2026-05-05 22:19 | 17.65397 | 114.12344 | 32956 ft | 476 kts | 33° |
| 2026-05-05 22:20 | 17.70861 | 114.16278 | 32959 ft | 477 kts | 33° |
| 2026-05-05 22:20 | 17.76333 | 114.20215 | 32956 ft | 477 kts | 33° |
| 2026-05-05 22:21 | 17.81810 | 114.24141 | 32958 ft | 477 kts | 33° |
| 2026-05-05 22:21 | 17.87281 | 114.28076 | 32959 ft | 477 kts | 33° |
| 2026-05-05 22:22 | 17.92743 | 114.32025 | 32961 ft | 477 kts | 33° |
| 2026-05-05 22:22 | 17.98218 | 114.35964 | 32962 ft | 477 kts | 33° |
| 2026-05-05 22:23 | 18.03691 | 114.39903 | 32968 ft | 477 kts | 33° |
| 2026-05-05 22:23 | 18.09174 | 114.43862 | 32979 ft | 478 kts | 33° |
| 2026-05-05 22:24 | 18.14631 | 114.47795 | 32977 ft | 480 kts | 33° |
| 2026-05-05 22:24 | 18.20130 | 114.51767 | 32996 ft | 479 kts | 32° |
| 2026-05-05 22:25 | 18.26069 | 114.54815 | 32984 ft | 474 kts | 14° |
| 2026-05-05 22:25 | 18.32497 | 114.56276 | 32999 ft | 472 kts | 9° |
| 2026-05-05 22:26 | 18.38939 | 114.57655 | 32988 ft | 472 kts | 10° |
| 2026-05-05 22:26 | 18.45369 | 114.59061 | 32987 ft | 472 kts | 10° |
| 2026-05-05 22:27 | 18.51802 | 114.60471 | 32983 ft | 471 kts | 10° |
| 2026-05-05 22:27 | 18.58216 | 114.61884 | 32981 ft | 471 kts | 10° |
| 2026-05-05 22:28 | 18.64627 | 114.63289 | 32977 ft | 470 kts | 10° |
| 2026-05-05 22:28 | 18.71047 | 114.64694 | 32977 ft | 471 kts | 10° |
| 2026-05-05 22:29 | 18.77431 | 114.66090 | 32980 ft | 471 kts | 10° |
| 2026-05-05 22:29 | 18.83861 | 114.67498 | 32982 ft | 471 kts | 10° |
| 2026-05-05 22:30 | 18.90276 | 114.68907 | 32984 ft | 471 kts | 10° |
| 2026-05-05 22:30 | 18.96688 | 114.70323 | 32991 ft | 471 kts | 11° |
| 2026-05-05 22:31 | 19.02816 | 114.72795 | 32990 ft | 476 kts | 29° |
| 2026-05-05 22:31 | 19.08479 | 114.76438 | 32997 ft | 476 kts | 29° |
| 2026-05-05 22:32 | 19.14146 | 114.80054 | 32986 ft | 476 kts | 29° |
| 2026-05-05 22:32 | 19.19776 | 114.83641 | 32989 ft | 475 kts | 29° |
| 2026-05-05 22:33 | 19.25445 | 114.87257 | 32991 ft | 477 kts | 29° |
| 2026-05-05 22:33 | 19.30195 | 114.90297 | 32995 ft | 476 kts | 29° |
| 2026-05-05 22:34 | 19.36799 | 114.94506 | 32993 ft | 476 kts | 29° |
| 2026-05-05 22:34 | 19.41502 | 114.97519 | 32989 ft | 476 kts | 29° |
| 2026-05-05 22:35 | 19.47196 | 115.01155 | 32995 ft | 478 kts | 29° |
| 2026-05-05 22:35 | 19.52886 | 115.04799 | 32999 ft | 478 kts | 29° |
| 2026-05-05 22:36 | 19.58576 | 115.08445 | 32998 ft | 477 kts | 30° |
| 2026-05-05 22:36 | 19.64265 | 115.12100 | 32983 ft | 477 kts | 29° |
| 2026-05-05 22:37 | 19.69949 | 115.15739 | 32996 ft | 477 kts | 29° |
| 2026-05-05 22:37 | 19.75616 | 115.19391 | 32994 ft | 477 kts | 29° |
| 2026-05-05 22:38 | 19.81290 | 115.23032 | 32992 ft | 475 kts | 29° |
| 2026-05-05 22:38 | 19.86951 | 115.26672 | 32984 ft | 476 kts | 29° |
| 2026-05-05 22:39 | 19.92579 | 115.30293 | 32986 ft | 476 kts | 29° |
| 2026-05-05 22:39 | 19.98245 | 115.33940 | 32988 ft | 476 kts | 29° |
| 2026-05-05 22:40 | 20.03911 | 115.37596 | 32999 ft | 476 kts | 29° |
| 2026-05-05 22:40 | 20.09571 | 115.41250 | 32985 ft | 476 kts | 29° |
| 2026-05-05 22:41 | 20.15235 | 115.44914 | 32979 ft | 477 kts | 29° |
| 2026-05-05 22:41 | 20.20911 | 115.48589 | 32985 ft | 477 kts | 29° |
| 2026-05-05 22:42 | 20.26592 | 115.52274 | 32995 ft | 478 kts | 29° |
| 2026-05-05 22:42 | 20.32242 | 115.55929 | 32999 ft | 478 kts | 29° |
| 2026-05-05 22:43 | 20.37930 | 115.59616 | 32985 ft | 479 kts | 29° |
| 2026-05-05 22:43 | 20.43618 | 115.63307 | 32997 ft | 478 kts | 29° |
| 2026-05-05 22:44 | 20.49308 | 115.67005 | 33002 ft | 479 kts | 29° |
| 2026-05-05 22:44 | 20.55009 | 115.70701 | 33005 ft | 479 kts | 29° |
| 2026-05-05 22:45 | 20.60695 | 115.74411 | 33004 ft | 478 kts | 29° |
| 2026-05-05 22:45 | 20.66380 | 115.78108 | 33004 ft | 478 kts | 29° |
| 2026-05-05 22:46 | 20.72050 | 115.81822 | 33005 ft | 478 kts | 29° |
| 2026-05-05 22:46 | 20.77686 | 115.85499 | 33004 ft | 477 kts | 29° |
| 2026-05-05 22:47 | 20.83357 | 115.89191 | 33001 ft | 477 kts | 29° |
| 2026-05-05 22:47 | 20.89019 | 115.92892 | 32997 ft | 476 kts | 29° |
| 2026-05-05 22:48 | 20.94716 | 115.96495 | 32988 ft | 473 kts | 21° |
| 2026-05-05 22:48 | 20.97836 | 115.97516 | 32978 ft | 467 kts | 6° |
| 2026-05-05 22:48 | 21.01059 | 115.97902 | 33003 ft | 466 kts | 2° |
| 2026-05-05 22:49 | 21.07522 | 115.98585 | 33001 ft | 466 kts | 3° |
| 2026-05-05 22:49 | 21.13981 | 115.99298 | 33003 ft | 467 kts | 3° |
| 2026-05-05 22:50 | 21.20441 | 116.00007 | 33001 ft | 466 kts | 3° |
| 2026-05-05 22:50 | 21.26892 | 116.00715 | 32999 ft | 466 kts | 3° |
| 2026-05-05 22:51 | 21.33351 | 116.01430 | 33013 ft | 467 kts | 3° |
| 2026-05-05 22:51 | 21.36587 | 116.01788 | 33158 ft | 467 kts | 3° |
| 2026-05-05 22:51 | 21.39816 | 116.02143 | 33306 ft | 466 kts | 3° |
| 2026-05-05 22:51 | 21.43041 | 116.02499 | 33453 ft | 466 kts | 3° |
| 2026-05-05 22:52 | 21.46265 | 116.02852 | 33602 ft | 465 kts | 3° |
| 2026-05-05 22:52 | 21.49443 | 116.03202 | 33747 ft | 465 kts | 3° |
| 2026-05-05 22:52 | 21.52710 | 116.03561 | 33917 ft | 465 kts | 2° |
| 2026-05-05 22:52 | 21.55885 | 116.03915 | 34079 ft | 464 kts | 3° |
| 2026-05-05 22:53 | 21.59097 | 116.04274 | 34233 ft | 464 kts | 2° |
| 2026-05-05 22:53 | 21.62299 | 116.04630 | 34377 ft | 463 kts | 2° |
| 2026-05-05 22:53 | 21.65513 | 116.04985 | 34517 ft | 463 kts | 3° |
| 2026-05-05 22:53 | 21.68710 | 116.05340 | 34650 ft | 462 kts | 2° |
| 2026-05-05 22:54 | 21.71912 | 116.05696 | 34773 ft | 463 kts | 2° |
| 2026-05-05 22:54 | 21.75116 | 116.06045 | 34910 ft | 463 kts | 2° |
| 2026-05-05 22:54 | 21.78319 | 116.06402 | 35016 ft | 463 kts | 2° |
| 2026-05-05 22:55 | 21.84725 | 116.07109 | 35068 ft | 462 kts | 2° |
| 2026-05-05 22:55 | 21.91126 | 116.07822 | 35097 ft | 462 kts | 2° |
| 2026-05-05 22:56 | 21.97529 | 116.08530 | 35100 ft | 462 kts | 3° |
| 2026-05-05 22:56 | 22.03917 | 116.09239 | 35100 ft | 462 kts | 2° |
| 2026-05-05 22:57 | 22.10310 | 116.09950 | 35106 ft | 462 kts | 3° |
| 2026-05-05 22:57 | 22.16666 | 116.10657 | 35112 ft | 463 kts | 2° |
| 2026-05-05 22:58 | 22.23081 | 116.11375 | 35116 ft | 463 kts | 2° |
| 2026-05-05 22:58 | 22.24161 | 116.11496 | 35117 ft | 463 kts | 2° |
| 2026-05-05 22:59 | 22.35967 | 116.12819 | 35117 ft | 462 kts | 2° |
| 2026-05-05 22:59 | 22.42381 | 116.13537 | 35120 ft | 464 kts | 2° |
| 2026-05-05 23:00 | 22.52002 | 116.14607 | 35128 ft | 463 kts | 2° |
| 2026-05-05 23:00 | 22.58420 | 116.15314 | 35132 ft | 463 kts | 2° |
| 2026-05-05 23:01 | 22.64833 | 116.16034 | 35129 ft | 463 kts | 2° |
| 2026-05-05 23:01 | 22.71145 | 116.17456 | 35132 ft | 468 kts | 17° |
| 2026-05-05 23:02 | 22.76855 | 116.20923 | 35137 ft | 477 kts | 34° |
| 2026-05-05 23:02 | 22.82097 | 116.25341 | 35138 ft | 478 kts | 34° |
| 2026-05-05 23:03 | 22.87381 | 116.29712 | 35139 ft | 477 kts | 34° |
| 2026-05-05 23:03 | 22.92651 | 116.34100 | 35149 ft | 477 kts | 34° |
| 2026-05-05 23:04 | 22.97930 | 116.38467 | 35151 ft | 476 kts | 34° |
| 2026-05-05 23:04 | 23.03167 | 116.42778 | 35151 ft | 476 kts | 34° |
| 2026-05-05 23:05 | 23.08429 | 116.47134 | 35149 ft | 475 kts | 34° |
| 2026-05-05 23:05 | 23.13685 | 116.51494 | 35146 ft | 475 kts | 34° |
| 2026-05-05 23:06 | 23.18955 | 116.55843 | 35149 ft | 475 kts | 34° |
| 2026-05-05 23:06 | 23.24205 | 116.60211 | 35150 ft | 475 kts | 34° |
| 2026-05-05 23:07 | 23.29459 | 116.64557 | 35151 ft | 474 kts | 34° |
| 2026-05-05 23:07 | 23.34700 | 116.68923 | 35151 ft | 474 kts | 34° |
| 2026-05-05 23:08 | 23.39946 | 116.73281 | 35148 ft | 474 kts | 34° |
| 2026-05-05 23:08 | 23.45051 | 116.77840 | 35137 ft | 477 kts | 42° |
| 2026-05-05 23:09 | 23.49622 | 116.83020 | 35144 ft | 477 kts | 43° |
| 2026-05-05 23:09 | 23.54222 | 116.88242 | 35139 ft | 477 kts | 43° |
| 2026-05-05 23:10 | 23.58821 | 116.93462 | 35144 ft | 477 kts | 43° |
| 2026-05-05 23:10 | 23.63421 | 116.98689 | 35140 ft | 478 kts | 43° |
| 2026-05-05 23:11 | 23.68014 | 117.03921 | 35143 ft | 479 kts | 43° |
| 2026-05-05 23:11 | 23.72626 | 117.09181 | 35146 ft | 479 kts | 43° |
| 2026-05-05 23:12 | 23.77240 | 117.14368 | 35140 ft | 477 kts | 39° |
| 2026-05-05 23:12 | 23.82209 | 117.19168 | 35137 ft | 477 kts | 38° |
| 2026-05-05 23:13 | 23.87160 | 117.24007 | 35139 ft | 477 kts | 38° |
| 2026-05-05 23:13 | 23.92108 | 117.28832 | 35147 ft | 477 kts | 38° |
| 2026-05-05 23:14 | 23.97041 | 117.33666 | 35132 ft | 476 kts | 38° |
| 2026-05-05 23:14 | 24.01981 | 117.38503 | 35135 ft | 477 kts | 38° |
| 2026-05-05 23:15 | 24.06922 | 117.43332 | 35147 ft | 475 kts | 38° |
| 2026-05-05 23:15 | 24.11813 | 117.48144 | 35138 ft | 476 kts | 38° |
| 2026-05-05 23:16 | 24.16495 | 117.53299 | 35139 ft | 479 kts | 44° |
| 2026-05-05 23:16 | 24.20974 | 117.58687 | 35134 ft | 478 kts | 44° |
| 2026-05-05 23:17 | 24.25465 | 117.64087 | 35150 ft | 480 kts | 44° |
| 2026-05-05 23:17 | 24.29963 | 117.69489 | 35162 ft | 480 kts | 44° |
| 2026-05-05 23:18 | 24.34463 | 117.74894 | 35166 ft | 480 kts | 44° |
| 2026-05-05 23:18 | 24.38956 | 117.80304 | 35169 ft | 480 kts | 44° |
| 2026-05-05 23:19 | 24.43447 | 117.85721 | 35170 ft | 479 kts | 44° |
| 2026-05-05 23:19 | 24.47939 | 117.91139 | 35167 ft | 479 kts | 44° |
| 2026-05-05 23:20 | 24.51679 | 117.95660 | 35163 ft | 482 kts | 44° |
| 2026-05-05 23:20 | 24.56182 | 118.01095 | 35174 ft | 481 kts | 44° |
| 2026-05-05 23:21 | 24.60807 | 118.06388 | 35168 ft | 480 kts | 42° |
| 2026-05-05 23:21 | 24.65453 | 118.11647 | 35158 ft | 479 kts | 42° |
| 2026-05-05 23:22 | 24.70089 | 118.16917 | 35160 ft | 480 kts | 42° |
| 2026-05-05 23:22 | 24.74717 | 118.22204 | 35165 ft | 480 kts | 43° |
| 2026-05-05 23:23 | 24.79355 | 118.27499 | 35168 ft | 480 kts | 43° |
| 2026-05-05 23:23 | 24.84000 | 118.32787 | 35171 ft | 480 kts | 43° |
| 2026-05-05 23:24 | 24.88639 | 118.38084 | 35173 ft | 480 kts | 43° |
| 2026-05-05 23:24 | 24.93276 | 118.43384 | 35172 ft | 481 kts | 43° |
| 2026-05-05 23:25 | 24.97902 | 118.48699 | 35166 ft | 481 kts | 43° |
| 2026-05-05 23:25 | 25.02537 | 118.54015 | 35171 ft | 481 kts | 43° |
| 2026-05-05 23:26 | 25.07164 | 118.59338 | 35172 ft | 481 kts | 43° |
| 2026-05-05 23:26 | 25.11730 | 118.64672 | 35169 ft | 482 kts | 45° |
| 2026-05-05 23:27 | 25.16232 | 118.70125 | 35163 ft | 480 kts | 44° |
| 2026-05-05 23:27 | 25.20737 | 118.75583 | 35160 ft | 481 kts | 44° |
| 2026-05-05 23:28 | 25.25259 | 118.81044 | 35159 ft | 482 kts | 44° |
| 2026-05-05 23:28 | 25.29783 | 118.86513 | 35156 ft | 482 kts | 44° |
| 2026-05-05 23:29 | 25.34302 | 118.91993 | 35161 ft | 482 kts | 44° |
| 2026-05-05 23:29 | 25.38914 | 118.97366 | 35162 ft | 482 kts | 43° |
| 2026-05-05 23:30 | 25.43531 | 119.02747 | 35159 ft | 482 kts | 43° |
| 2026-05-05 23:30 | 25.48139 | 119.08127 | 35158 ft | 481 kts | 44° |
| 2026-05-05 23:31 | 25.52738 | 119.13525 | 35153 ft | 482 kts | 44° |
| 2026-05-05 23:31 | 25.57352 | 119.18914 | 35154 ft | 482 kts | 44° |
| 2026-05-05 23:32 | 25.61958 | 119.24321 | 35155 ft | 483 kts | 44° |
| 2026-05-05 23:32 | 25.66537 | 119.29711 | 35158 ft | 484 kts | 44° |
| 2026-05-05 23:33 | 25.71191 | 119.35100 | 35155 ft | 483 kts | 39° |
| 2026-05-05 23:33 | 25.76690 | 119.39205 | 35152 ft | 474 kts | 20° |
| 2026-05-05 23:34 | 25.82907 | 119.41531 | 35150 ft | 471 kts | 13° |
| 2026-05-05 23:34 | 25.89188 | 119.43645 | 35147 ft | 472 kts | 13° |
| 2026-05-05 23:35 | 25.95477 | 119.45793 | 35147 ft | 473 kts | 14° |
| 2026-05-05 23:35 | 26.01774 | 119.47928 | 35158 ft | 474 kts | 14° |
| 2026-05-05 23:36 | 26.08082 | 119.50078 | 35170 ft | 474 kts | 14° |
| 2026-05-05 23:36 | 26.14385 | 119.52234 | 35173 ft | 473 kts | 14° |
| 2026-05-05 23:37 | 26.20674 | 119.54432 | 35171 ft | 475 kts | 18° |
| 2026-05-05 23:37 | 26.26516 | 119.57948 | 35174 ft | 480 kts | 30° |
| 2026-05-05 23:38 | 26.32127 | 119.61903 | 35176 ft | 480 kts | 29° |
| 2026-05-05 23:38 | 26.37784 | 119.65864 | 35176 ft | 480 kts | 29° |
| 2026-05-05 23:39 | 26.43426 | 119.69830 | 35171 ft | 479 kts | 29° |
| 2026-05-05 23:39 | 26.49079 | 119.73776 | 35169 ft | 480 kts | 29° |
| 2026-05-05 23:40 | 26.54732 | 119.77742 | 35173 ft | 480 kts | 29° |
| 2026-05-05 23:40 | 26.60370 | 119.81715 | 35173 ft | 479 kts | 29° |
| 2026-05-05 23:41 | 26.66001 | 119.85672 | 35169 ft | 477 kts | 29° |
| 2026-05-05 23:41 | 26.71623 | 119.89627 | 35164 ft | 477 kts | 29° |
| 2026-05-05 23:42 | 26.77197 | 119.93561 | 35161 ft | 477 kts | 29° |
| 2026-05-05 23:42 | 26.82802 | 119.97526 | 35165 ft | 476 kts | 30° |
| 2026-05-05 23:43 | 26.88404 | 120.01483 | 35164 ft | 476 kts | 29° |
| 2026-05-05 23:43 | 26.94014 | 120.05448 | 35148 ft | 477 kts | 30° |
| 2026-05-05 23:44 | 26.99623 | 120.09432 | 35127 ft | 478 kts | 30° |
| 2026-05-05 23:44 | 27.05215 | 120.13405 | 35137 ft | 479 kts | 30° |
| 2026-05-05 23:45 | 27.10855 | 120.17404 | 35153 ft | 480 kts | 30° |
| 2026-05-05 23:45 | 27.16492 | 120.21404 | 35159 ft | 479 kts | 30° |
| 2026-05-05 23:46 | 27.22143 | 120.25382 | 35159 ft | 480 kts | 30° |
| 2026-05-05 23:46 | 27.27789 | 120.29378 | 35159 ft | 478 kts | 30° |
| 2026-05-05 23:47 | 27.33422 | 120.33362 | 35161 ft | 478 kts | 30° |
| 2026-05-05 23:47 | 27.39053 | 120.37341 | 35166 ft | 478 kts | 30° |
| 2026-05-05 23:48 | 27.44675 | 120.41349 | 35168 ft | 478 kts | 30° |
| 2026-05-05 23:48 | 27.50298 | 120.45351 | 35169 ft | 478 kts | 30° |
| 2026-05-05 23:49 | 27.55878 | 120.49322 | 35165 ft | 477 kts | 30° |
| 2026-05-05 23:49 | 27.61484 | 120.53320 | 35166 ft | 477 kts | 30° |
| 2026-05-05 23:50 | 27.67085 | 120.57334 | 35163 ft | 477 kts | 30° |
| 2026-05-05 23:50 | 27.72758 | 120.61186 | 35157 ft | 474 kts | 22° |
| 2026-05-05 23:51 | 27.78989 | 120.63384 | 35152 ft | 468 kts | 5° |
| 2026-05-05 23:51 | 27.85482 | 120.63974 | 35161 ft | 468 kts | 2° |
| 2026-05-05 23:52 | 27.91977 | 120.64567 | 35163 ft | 468 kts | 2° |
| 2026-05-05 23:52 | 27.98455 | 120.65179 | 35162 ft | 466 kts | 2° |
| 2026-05-05 23:53 | 28.04888 | 120.65785 | 35161 ft | 466 kts | 3° |
| 2026-05-05 23:53 | 28.11345 | 120.66423 | 35163 ft | 466 kts | 2° |
| 2026-05-05 23:54 | 28.17811 | 120.67058 | 35165 ft | 466 kts | 3° |
| 2026-05-05 23:54 | 28.24266 | 120.67689 | 35164 ft | 466 kts | 3° |
| 2026-05-05 23:55 | 28.30741 | 120.68317 | 35166 ft | 467 kts | 3° |
| 2026-05-05 23:55 | 28.37203 | 120.68963 | 35163 ft | 466 kts | 3° |
| 2026-05-05 23:56 | 28.43676 | 120.69595 | 35161 ft | 467 kts | 3° |
| 2026-05-05 23:56 | 28.50143 | 120.70239 | 35160 ft | 467 kts | 3° |
| 2026-05-05 23:57 | 28.56571 | 120.70891 | 35164 ft | 466 kts | 3° |
| 2026-05-05 23:57 | 28.63045 | 120.71545 | 35162 ft | 466 kts | 3° |
| 2026-05-05 23:58 | 28.69512 | 120.72199 | 35165 ft | 466 kts | 3° |
| 2026-05-05 23:58 | 28.75968 | 120.72906 | 35165 ft | 466 kts | 4° |
| 2026-05-05 23:59 | 28.82429 | 120.73617 | 35166 ft | 466 kts | 4° |
| 2026-05-05 23:59 | 28.88890 | 120.74323 | 35163 ft | 466 kts | 3° |
| 2026-05-06 00:00 | 28.95341 | 120.74979 | 35163 ft | 465 kts | 3° |
| 2026-05-06 00:00 | 29.01794 | 120.75641 | 35162 ft | 465 kts | 3° |
| 2026-05-06 00:01 | 29.08250 | 120.76295 | 35164 ft | 465 kts | 3° |
| 2026-05-06 00:01 | 29.14680 | 120.76963 | 35165 ft | 464 kts | 3° |
| 2026-05-06 00:02 | 29.21067 | 120.77623 | 35175 ft | 463 kts | 3° |
| 2026-05-06 00:02 | 29.27400 | 120.78287 | 35148 ft | 451 kts | 4° |
| 2026-05-06 00:03 | 29.33607 | 120.78919 | 35143 ft | 447 kts | 4° |
| 2026-05-06 00:03 | 29.36692 | 120.79240 | 35017 ft | 440 kts | 4° |
| 2026-05-06 00:03 | 29.39706 | 120.79551 | 34754 ft | 430 kts | 4° |
| 2026-05-06 00:04 | 29.42651 | 120.79859 | 34500 ft | 420 kts | 4° |
| 2026-05-06 00:04 | 29.45535 | 120.80158 | 34247 ft | 412 kts | 4° |
| 2026-05-06 00:04 | 29.48380 | 120.80448 | 33992 ft | 409 kts | 4° |
| 2026-05-06 00:04 | 29.51214 | 120.80740 | 33739 ft | 408 kts | 5° |
| 2026-05-06 00:05 | 29.56755 | 120.82150 | 33232 ft | 411 kts | 21° |
| 2026-05-06 00:05 | 29.59302 | 120.83636 | 32981 ft | 413 kts | 31° |
| 2026-05-06 00:05 | 29.61629 | 120.85590 | 32737 ft | 416 kts | 40° |
| 2026-05-06 00:06 | 29.63623 | 120.88013 | 32490 ft | 420 kts | 50° |
| 2026-05-06 00:06 | 29.65267 | 120.90748 | 32248 ft | 422 kts | 54° |
| 2026-05-06 00:06 | 29.66865 | 120.93582 | 31997 ft | 422 kts | 54° |
| 2026-05-06 00:06 | 29.68469 | 120.96397 | 31396 ft | 422 kts | 54° |
| 2026-05-06 00:07 | 29.70091 | 120.99224 | 30726 ft | 423 kts | 54° |
| 2026-05-06 00:07 | 29.71712 | 121.02043 | 30055 ft | 423 kts | 54° |
| 2026-05-06 00:07 | 29.73338 | 121.04880 | 29368 ft | 424 kts | 54° |
| 2026-05-06 00:07 | 29.74956 | 121.07720 | 28675 ft | 424 kts | 54° |
| 2026-05-06 00:08 | 29.76573 | 121.10545 | 28177 ft | 420 kts | 54° |
| 2026-05-06 00:08 | 29.78174 | 121.13335 | 27663 ft | 416 kts | 54° |
| 2026-05-06 00:08 | 29.79753 | 121.16102 | 27152 ft | 412 kts | 54° |
| 2026-05-06 00:08 | 29.81316 | 121.18853 | 26644 ft | 409 kts | 54° |
| 2026-05-06 00:09 | 29.82872 | 121.21587 | 26141 ft | 406 kts | 54° |
| 2026-05-06 00:09 | 29.84419 | 121.24300 | 25630 ft | 404 kts | 54° |
| 2026-05-06 00:09 | 29.85956 | 121.26996 | 25140 ft | 401 kts | 54° |
| 2026-05-06 00:09 | 29.87480 | 121.29676 | 24643 ft | 399 kts | 54° |
| 2026-05-06 00:10 | 29.89175 | 121.32183 | 24151 ft | 394 kts | 44° |
| 2026-05-06 00:10 | 29.90484 | 121.33603 | 23827 ft | 390 kts | 37° |
| 2026-05-06 00:10 | 29.93480 | 121.35878 | 23197 ft | 385 kts | 27° |
| 2026-05-06 00:10 | 29.95805 | 121.37322 | 22704 ft | 383 kts | 26° |
| 2026-05-06 00:11 | 29.98136 | 121.38768 | 22236 ft | 379 kts | 26° |
| 2026-05-06 00:11 | 30.00449 | 121.40208 | 21739 ft | 379 kts | 26° |
| 2026-05-06 00:11 | 30.02782 | 121.41661 | 21266 ft | 380 kts | 27° |
| 2026-05-06 00:11 | 30.04344 | 121.42643 | 20935 ft | 374 kts | 27° |
| 2026-05-06 00:12 | 30.06582 | 121.44049 | 20478 ft | 371 kts | 27° |
| 2026-05-06 00:12 | 30.08859 | 121.45480 | 19993 ft | 364 kts | 27° |
| 2026-05-06 00:12 | 30.11359 | 121.47031 | 19485 ft | 359 kts | 27° |
| 2026-05-06 00:13 | 30.12805 | 121.47943 | 19180 ft | 356 kts | 27° |
| 2026-05-06 00:13 | 30.15692 | 121.49765 | 18565 ft | 351 kts | 27° |
| 2026-05-06 00:13 | 30.17115 | 121.50650 | 18261 ft | 349 kts | 27° |
| 2026-05-06 00:13 | 30.19246 | 121.51983 | 17804 ft | 346 kts | 27° |
| 2026-05-06 00:14 | 30.21348 | 121.53310 | 17349 ft | 343 kts | 27° |
| 2026-05-06 00:14 | 30.23432 | 121.54626 | 16894 ft | 341 kts | 27° |
| 2026-05-06 00:14 | 30.25502 | 121.55930 | 16435 ft | 338 kts | 27° |
| 2026-05-06 00:14 | 30.27558 | 121.57255 | 15979 ft | 339 kts | 28° |
| 2026-05-06 00:15 | 30.29609 | 121.58578 | 15496 ft | 335 kts | 28° |
| 2026-05-06 00:15 | 30.31623 | 121.59896 | 15055 ft | 328 kts | 28° |
| 2026-05-06 00:15 | 30.33617 | 121.61201 | 14609 ft | 332 kts | 28° |
| 2026-05-06 00:15 | 30.35634 | 121.62500 | 14137 ft | 331 kts | 28° |
| 2026-05-06 00:16 | 30.37633 | 121.63808 | 13678 ft | 330 kts | 30° |
| 2026-05-06 00:16 | 30.39589 | 121.65186 | 13215 ft | 327 kts | 30° |
| 2026-05-06 00:16 | 30.41526 | 121.66560 | 12744 ft | 325 kts | 30° |
| 2026-05-06 00:16 | 30.43451 | 121.67918 | 12279 ft | 324 kts | 30° |
| 2026-05-06 00:17 | 30.45373 | 121.69268 | 11793 ft | 322 kts | 30° |
| 2026-05-06 00:17 | 30.47289 | 121.70607 | 11324 ft | 320 kts | 30° |
| 2026-05-06 00:17 | 30.49187 | 121.71943 | 10856 ft | 319 kts | 31° |
| 2026-05-06 00:17 | 30.51076 | 121.73279 | 10401 ft | 317 kts | 31° |
| 2026-05-06 00:18 | 30.52928 | 121.74583 | 10204 ft | 305 kts | 31° |
| 2026-05-06 00:18 | 30.54715 | 121.75842 | 9954 ft | 298 kts | 31° |
| 2026-05-06 00:18 | 30.56468 | 121.77037 | 9818 ft | 296 kts | 26° |
| 2026-05-06 00:18 | 30.58387 | 121.77871 | 9688 ft | 295 kts | 14° |
| 2026-05-06 00:19 | 30.60384 | 121.78418 | 9565 ft | 294 kts | 13° |
| 2026-05-06 00:19 | 30.62380 | 121.78948 | 9445 ft | 294 kts | 13° |
| 2026-05-06 00:19 | 30.64373 | 121.79481 | 9325 ft | 294 kts | 13° |
| 2026-05-06 00:19 | 30.66358 | 121.80015 | 9198 ft | 293 kts | 13° |
| 2026-05-06 00:20 | 30.68343 | 121.80552 | 9069 ft | 292 kts | 13° |
| 2026-05-06 00:20 | 30.70322 | 121.81093 | 8948 ft | 292 kts | 13° |
| 2026-05-06 00:20 | 30.72300 | 121.81637 | 8823 ft | 292 kts | 13° |
| 2026-05-06 00:20 | 30.74278 | 121.82177 | 8702 ft | 291 kts | 13° |
| 2026-05-06 00:21 | 30.76247 | 121.82711 | 8566 ft | 291 kts | 13° |
| 2026-05-06 00:21 | 30.78209 | 121.83242 | 8444 ft | 290 kts | 13° |
| 2026-05-06 00:21 | 30.80178 | 121.83779 | 8316 ft | 290 kts | 13° |
| 2026-05-06 00:21 | 30.82139 | 121.84316 | 8192 ft | 289 kts | 13° |
| 2026-05-06 00:22 | 30.84093 | 121.84851 | 8065 ft | 290 kts | 13° |
| 2026-05-06 00:22 | 30.86053 | 121.85383 | 7939 ft | 288 kts | 13° |
| 2026-05-06 00:22 | 30.87980 | 121.85909 | 7816 ft | 287 kts | 13° |
| 2026-05-06 00:22 | 30.89925 | 121.86433 | 7684 ft | 287 kts | 11° |
| 2026-05-06 00:23 | 30.91929 | 121.86574 | 7554 ft | 286 kts | 354° |
| 2026-05-06 00:23 | 30.93834 | 121.86063 | 7435 ft | 286 kts | 338° |
| 2026-05-06 00:23 | 30.95560 | 121.84935 | 7310 ft | 285 kts | 322° |
| 2026-05-06 00:23 | 30.97078 | 121.83437 | 7174 ft | 285 kts | 319° |
| 2026-05-06 00:24 | 30.98572 | 121.81926 | 7043 ft | 283 kts | 319° |
| 2026-05-06 00:24 | 31.00060 | 121.80428 | 6960 ft | 283 kts | 319° |
| 2026-05-06 00:24 | 31.01550 | 121.78930 | 6876 ft | 284 kts | 319° |
| 2026-05-06 00:24 | 31.03043 | 121.77428 | 6739 ft | 283 kts | 319° |
| 2026-05-06 00:25 | 31.04524 | 121.75916 | 6615 ft | 282 kts | 318° |
| 2026-05-06 00:25 | 31.05993 | 121.74400 | 6495 ft | 282 kts | 318° |
| 2026-05-06 00:25 | 31.07451 | 121.72886 | 6362 ft | 280 kts | 318° |
| 2026-05-06 00:25 | 31.08912 | 121.71377 | 6245 ft | 281 kts | 318° |
| 2026-05-06 00:26 | 31.10376 | 121.69871 | 6118 ft | 280 kts | 318° |
| 2026-05-06 00:26 | 31.11831 | 121.68370 | 5995 ft | 279 kts | 319° |
| 2026-05-06 00:26 | 31.13440 | 121.67108 | 5850 ft | 277 kts | 334° |
| 2026-05-06 00:26 | 31.15245 | 121.66324 | 5717 ft | 279 kts | 343° |
| 2026-05-06 00:27 | 31.17107 | 121.65664 | 5589 ft | 279 kts | 343° |
| 2026-05-06 00:27 | 31.18953 | 121.65004 | 5465 ft | 277 kts | 343° |
| 2026-05-06 00:27 | 31.20801 | 121.64345 | 5343 ft | 278 kts | 343° |
| 2026-05-06 00:27 | 31.22642 | 121.63674 | 5146 ft | 275 kts | 343° |
| 2026-05-06 00:28 | 31.24465 | 121.63016 | 4951 ft | 273 kts | 343° |
| 2026-05-06 00:28 | 31.26218 | 121.62372 | 4775 ft | 264 kts | 342° |
| 2026-05-06 00:28 | 31.27983 | 121.61698 | 4421 ft | 262 kts | 342° |
| 2026-05-06 00:28 | 31.29710 | 121.61041 | 4110 ft | 259 kts | 342° |
| 2026-05-06 00:29 | 31.31405 | 121.60399 | 3815 ft | 258 kts | 342° |
| 2026-05-06 00:29 | 31.33112 | 121.59748 | 3504 ft | 258 kts | 341° |
| 2026-05-06 00:29 | 31.34812 | 121.59094 | 3184 ft | 257 kts | 342° |
| 2026-05-06 00:29 | 31.36499 | 121.58453 | 3029 ft | 251 kts | 342° |
| 2026-05-06 00:30 | 31.38168 | 121.58198 | 3013 ft | 237 kts | 8° |
| 2026-05-06 00:30 | 31.39656 | 121.58894 | 3017 ft | 229 kts | 39° |
| 2026-05-06 00:30 | 31.40610 | 121.60337 | 3016 ft | 224 kts | 71° |
| 2026-05-06 00:30 | 31.41005 | 121.62094 | 3021 ft | 223 kts | 80° |
| 2026-05-06 00:31 | 31.41323 | 121.63861 | 2999 ft | 222 kts | 80° |
| 2026-05-06 00:31 | 31.41638 | 121.65602 | 3002 ft | 216 kts | 81° |
| 2026-05-06 00:31 | 31.41649 | 121.67310 | 2995 ft | 208 kts | 111° |
| 2026-05-06 00:31 | 31.40813 | 121.68635 | 3015 ft | 204 kts | 149° |
| 2026-05-06 00:32 | 31.39495 | 121.69263 | 3021 ft | 205 kts | 162° |
| 2026-05-06 00:32 | 31.38139 | 121.69766 | 3017 ft | 204 kts | 163° |
| 2026-05-06 00:32 | 31.36786 | 121.70262 | 3013 ft | 204 kts | 162° |
| 2026-05-06 00:32 | 31.35426 | 121.70779 | 3017 ft | 204 kts | 162° |
| 2026-05-06 00:33 | 31.34073 | 121.71295 | 3004 ft | 204 kts | 162° |
| 2026-05-06 00:33 | 31.32735 | 121.71799 | 3012 ft | 204 kts | 162° |
| 2026-05-06 00:33 | 31.31413 | 121.72296 | 3021 ft | 191 kts | 162° |
| 2026-05-06 00:33 | 31.30192 | 121.72766 | 2956 ft | 186 kts | 162° |
| 2026-05-06 00:34 | 31.28970 | 121.73230 | 2761 ft | 183 kts | 162° |
| 2026-05-06 00:34 | 31.27750 | 121.73686 | 2517 ft | 184 kts | 162° |
| 2026-05-06 00:34 | 31.26544 | 121.74142 | 2280 ft | 177 kts | 162° |
| 2026-05-06 00:34 | 31.25424 | 121.74571 | 2066 ft | 161 kts | 162° |
| 2026-05-06 00:35 | 31.24422 | 121.74949 | 1862 ft | 146 kts | 162° |
| 2026-05-06 00:35 | 31.23469 | 121.75311 | 1673 ft | 143 kts | 162° |
| 2026-05-06 00:35 | 31.22535 | 121.75666 | 1471 ft | 139 kts | 162° |
| 2026-05-06 00:35 | 31.21621 | 121.76007 | 1295 ft | 142 kts | 162° |
| 2026-05-06 00:36 | 31.20686 | 121.76367 | 1105 ft | 142 kts | 162° |
| 2026-05-06 00:36 | 31.19750 | 121.76723 | 931 ft | 140 kts | 162° |
| 2026-05-06 00:36 | 31.18828 | 121.77079 | 755 ft | 139 kts | 162° |
| 2026-05-06 00:36 | 31.17917 | 121.77428 | 562 ft | 139 kts | 163° |
| 2026-05-06 00:37 | 31.16995 | 121.77764 | 376 ft | 139 kts | 162° |
| 2026-05-06 00:37 | 31.16076 | 121.78112 | 197 ft | 138 kts | 162° |
| 2026-05-06 00:37 | 31.15164 | 121.78456 | 43 ft | 138 kts | 162° |
| 2026-05-06 00:37 | 31.14364 | 121.78756 | 22 ft | 100 kts | 162° |
| 2026-05-06 00:38 | 31.13866 | 121.78944 | 22 ft | 50 kts | 162° |
| 2026-05-06 00:38 | 31.13629 | 121.79038 | 25 ft | 27 kts | 154° |
| 2026-05-06 00:38 | 31.13504 | 121.79157 | 24 ft | 19 kts | 134° |
| 2026-05-06 00:38 | 31.13435 | 121.79239 | 23 ft | 14 kts | 134° |
| 2026-05-06 00:39 | 31.13367 | 121.79318 | 24 ft | 12 kts | 139° |
| 2026-05-06 00:39 | 31.13315 | 121.79390 | 23 ft | 11 kts | 98° |
| 2026-05-06 00:39 | 31.13338 | 121.79487 | 23 ft | 14 kts | 72° |
| 2026-05-06 00:39 | 31.13370 | 121.79603 | 23 ft | 16 kts | 72° |
| 2026-05-06 00:40 | 31.13402 | 121.79722 | 21 ft | 13 kts | 72° |
| 2026-05-06 00:40 | 31.13431 | 121.79823 | 22 ft | 14 kts | 72° |
| 2026-05-06 00:40 | 31.13472 | 121.79914 | 24 ft | 13 kts | 24° |
| 2026-05-06 00:40 | 31.13567 | 121.79893 | 25 ft | 15 kts | 342° |
| 2026-05-06 00:41 | 31.13673 | 121.79853 | 24 ft | 17 kts | 342° |
| 2026-05-06 00:41 | 31.13786 | 121.79810 | 23 ft | 16 kts | 342° |
| 2026-05-06 00:41 | 31.13899 | 121.79768 | 25 ft | 18 kts | 342° |
| 2026-05-06 00:41 | 31.14024 | 121.79721 | 24 ft | 19 kts | 342° |
| 2026-05-06 00:42 | 31.14139 | 121.79677 | 23 ft | 18 kts | 342° |
| 2026-05-06 00:42 | 31.14245 | 121.79637 | 24 ft | 15 kts | 342° |
| 2026-05-06 00:42 | 31.14333 | 121.79604 | 23 ft | 12 kts | 343° |
| 2026-05-06 00:42 | 31.14389 | 121.79632 | 25 ft | 10 kts | 59° |
| 2026-05-06 00:43 | 31.14413 | 121.79707 | 24 ft | 10 kts | 71° |
| 2026-05-06 00:43 | 31.14438 | 121.79797 | 23 ft | 13 kts | 72° |
| 2026-05-06 00:43 | 31.14468 | 121.79905 | 24 ft | 15 kts | 72° |
| 2026-05-06 00:43 | 31.14497 | 121.80009 | 23 ft | 10 kts | 72° |
| 2026-05-06 00:44 | 31.14515 | 121.80074 | 24 ft | 8 kts | 69° |
| 2026-05-06 00:44 | 31.14562 | 121.80111 | 23 ft | 8 kts | 358° |
| 2026-05-06 00:44 | 31.14601 | 121.80099 | 25 ft | 6 kts | 344° |
| 2026-05-06 00:44 | 31.14638 | 121.80086 | 24 ft | 5 kts | 341° |
| 2026-05-06 00:45 | 31.14673 | 121.80072 | 25 ft | 4 kts | 336° |
| 2026-05-06 00:45 | 31.14675 | 121.80041 | 23 ft | 5 kts | 258° |
| 2026-05-06 00:45 | 31.14667 | 121.80010 | 23 ft | 2 kts | 252° |
| 2026-05-06 00:45 | 31.14666 | 121.80005 | 23 ft | 0 kts | 252° |